Time;durP1;ratioP1;P1;durP2;ratioP2;P2;SDS_P1;SDS_P2;PMS_P1;PMS_P2;Temp;Humidity;BMP_temperature;BMP_pressure;BME280_temperature;BME280_humidity;BME280_pressure;Samples;Min_cycle;Max_cycle;Signal;HPM_P1;HPM_P2
2024/01/27 00:01:27;;;;;;;21.45;4.10;;;;;;;3.95;100.00;102467.88;5013752;28;20267;-42
2024/01/27 00:03:54;;;;;;;21.45;3.63;;;;;;;3.94;100.00;102476.72;5013665;28;20187;-41
2024/01/27 00:06:19;;;;;;;32.70;4.40;;;;;;;3.90;100.00;102476.66;4995854;28;20197;-41
2024/01/27 00:08:45;;;;;;;29.55;3.92;;;;;;;3.91;100.00;102469.59;5013590;28;20231;-42
2024/01/27 00:11:11;;;;;;;24.63;3.55;;;;;;;3.96;100.00;102473.22;5013412;28;20185;-41
2024/01/27 00:13:37;;;;;;;33.88;4.07;;;;;;;3.92;100.00;102476.69;5013492;28;20227;-43
2024/01/27 00:16:02;;;;;;;32.47;4.32;;;;;;;3.97;100.00;102472.34;5013330;28;20770;-42
2024/01/27 00:18:28;;;;;;;23.00;3.25;;;;;;;3.96;100.00;102481.19;4995926;28;20193;-41
2024/01/27 00:20:53;;;;;;;27.98;3.70;;;;;;;3.95;100.00;102475.84;5013671;28;20176;-42
2024/01/27 00:23:19;;;;;;;21.73;3.90;;;;;;;3.98;100.00;102492.69;5013282;28;20312;-40
2024/01/27 00:25:44;;;;;;;24.60;4.07;;;;;;;4.00;100.00;102493.63;5013500;28;20188;-39
2024/01/27 00:28:10;;;;;;;22.73;3.28;;;;;;;4.05;100.00;102494.56;4995736;28;20287;-42
2024/01/27 00:30:35;;;;;;;22.73;3.92;;;;;;;4.10;100.00;102495.53;4995599;28;20169;-40
2024/01/27 00:33:02;;;;;;;21.67;3.25;;;;;;;4.17;100.00;102487.66;5013404;28;20247;-43
2024/01/27 00:35:27;;;;;;;27.23;3.95;;;;;;;4.12;100.00;102490.25;5013617;28;20569;-43
2024/01/27 00:37:53;;;;;;;28.33;3.75;;;;;;;4.15;100.00;102489.41;5013185;28;20204;-42
2024/01/27 00:40:18;;;;;;;32.17;4.65;;;;;;;4.15;100.00;102484.09;5013303;28;20176;-43
2024/01/27 00:42:44;;;;;;;25.25;5.20;;;;;;;4.10;100.00;102495.53;5013142;28;20195;-41
2024/01/27 00:45:09;;;;;;;23.98;3.92;;;;;;;4.11;100.00;102505.28;5012767;28;20269;-42
2024/01/27 00:47:35;;;;;;;31.92;4.78;;;;;;;4.10;100.00;102508.78;5013083;28;20172;-41
2024/01/27 00:50:00;;;;;;;26.95;4.45;;;;;;;4.11;100.00;102494.69;5012855;28;20173;-40
2024/01/27 00:52:26;;;;;;;21.13;3.47;;;;;;;4.12;100.00;102500.88;5013108;28;20171;-40
2024/01/27 00:54:51;;;;;;;24.15;4.25;;;;;;;4.06;100.00;102493.69;5012770;28;20193;-40
2024/01/27 00:57:17;;;;;;;34.15;4.60;;;;;;;4.07;100.00;102507.88;5012545;28;20204;-43
2024/01/27 00:59:42;;;;;;;19.67;4.05;;;;;;;4.02;100.00;102504.22;5012607;28;20172;-39
2024/01/27 01:02:08;;;;;;;18.67;3.33;;;;;;;4.04;100.00;102511.34;5012686;28;20204;-40
2024/01/27 01:04:33;;;;;;;29.98;5.00;;;;;;;4.02;100.00;102507.75;5012467;28;20255;-42
2024/01/27 01:06:59;;;;;;;25.55;4.35;;;;;;;3.88;100.00;102504.03;5012355;28;20192;-39
2024/01/27 01:09:25;;;;;;;28.52;3.97;;;;;;;3.92;100.00;102519.13;5012494;28;20168;-43
2024/01/27 01:11:50;;;;;;;26.83;4.05;;;;;;;3.96;100.00;102510.34;5012470;28;20219;-41
2024/01/27 01:14:16;;;;;;;21.95;3.92;;;;;;;3.94;100.00;102509.44;5012426;28;20173;-42
2024/01/27 01:16:41;;;;;;;18.30;3.47;;;;;;;3.85;100.00;102502.22;5012221;28;20519;-40
2024/01/27 01:19:07;;;;;;;24.63;3.95;;;;;;;3.78;100.00;102510.03;5012176;28;20200;-40
2024/01/27 01:21:33;;;;;;;24.45;3.63;;;;;;;3.80;100.00;102517.13;5012137;28;20257;-40
2024/01/27 01:23:59;;;;;;;23.13;4.50;;;;;;;3.79;100.00;102533.91;5012588;28;20264;-41
2024/01/27 01:26:25;;;;;;;20.10;3.40;;;;;;;3.83;100.00;102530.47;5010762;28;20212;-41
2024/01/27 01:28:51;;;;;;;31.17;3.92;;;;;;;3.87;100.00;102532.31;5012151;28;20550;-40
2024/01/27 01:31:16;;;;;;;21.80;4.25;;;;;;;3.91;100.00;102541.19;5012074;28;20591;-41
2024/01/27 01:33:43;;;;;;;31.83;3.60;;;;;;;3.94;100.00;102524.47;5012138;28;20181;-40
2024/01/27 01:36:08;;;;;;;23.27;3.55;;;;;;;3.86;100.00;102535.81;4994369;28;20192;-43
2024/01/27 01:38:35;;;;;;;24.25;4.20;;;;;;;3.87;100.00;102534.94;5012157;28;20671;-39
2024/01/27 01:41:01;;;;;;;24.60;3.88;;;;;;;3.94;100.00;102535.94;5011745;28;20235;-41
2024/01/27 01:43:26;;;;;;;32.83;3.70;;;;;;;4.03;100.00;102543.16;4994339;28;20171;-43
2024/01/27 01:45:55;;;;;;;25.50;3.78;;;;;;;4.04;100.00;102553.78;5011839;28;20239;-41
2024/01/27 01:48:21;;;;;;;30.58;3.58;;;;;;;4.03;100.00;102548.47;5011966;28;20168;-40
2024/01/27 01:50:47;;;;;;;22.15;4.55;;;;;;;4.01;100.00;102555.50;5012016;28;20635;-41
2024/01/27 01:53:13;;;;;;;26.38;4.32;;;;;;;4.07;100.00;102553.84;5011762;28;20208;-40
2024/01/27 01:55:39;;;;;;;19.52;3.45;;;;;;;4.07;100.00;102560.91;5011649;28;20197;-41
2024/01/27 01:58:05;;;;;;;23.15;4.38;;;;;;;4.09;100.00;102565.38;5011660;28;20184;-43
2024/01/27 02:00:31;;;;;;;28.50;3.95;;;;;;;4.16;100.00;102569.00;5011648;28;20176;-41
2024/01/27 02:02:57;;;;;;;21.95;3.78;;;;;;;4.12;100.00;102581.31;5011903;28;20169;-41
2024/01/27 02:05:23;;;;;;;31.35;3.92;;;;;;;4.10;100.00;102567.13;5011560;28;20177;-40
2024/01/27 02:07:48;;;;;;;23.08;4.70;;;;;;;4.15;100.00;102567.22;5010942;28;20246;-40
2024/01/27 02:10:15;;;;;;;32.25;4.90;;;;;;;4.14;100.00;102570.75;5011498;28;20564;-40
2024/01/27 02:12:42;;;;;;;17.48;3.65;;;;;;;4.25;100.00;102568.28;5011602;28;20165;-42
2024/01/27 02:15:12;;;;;;;28.67;3.47;;;;;;;4.24;100.00;102579.72;4993812;28;20727;-39
2024/01/27 02:17:39;;;;;;;26.40;4.70;;;;;;;4.27;100.00;102590.41;5011542;28;20224;-39
2024/01/27 02:20:06;;;;;;;24.90;4.13;;;;;;;4.23;100.00;102577.97;5011325;28;20767;-40
2024/01/27 02:22:33;;;;;;;17.00;3.90;;;;;;;4.25;100.00;102585.06;5014076;28;20232;-41
2024/01/27 02:24:58;;;;;;;21.00;4.03;;;;;;;4.29;100.00;102584.25;5015426;28;20180;-43
2024/01/27 02:27:24;;;;;;;34.95;4.03;;;;;;;4.32;100.00;102594.91;5015439;28;20205;-41
2024/01/27 02:29:49;;;;;;;34.42;4.93;;;;;;;4.26;100.00;102581.56;5015248;28;20215;-40
2024/01/27 02:32:15;;;;;;;34.85;4.75;;;;;;;4.36;100.00;102579.94;5015342;28;20169;-40
2024/01/27 02:34:40;;;;;;;25.00;4.40;;;;;;;4.37;100.00;102587.03;5015931;28;20172;-40
2024/01/27 02:37:06;;;;;;;34.20;4.55;;;;;;;4.38;100.00;102582.63;5015145;28;20200;-42
2024/01/27 02:39:31;;;;;;;21.38;4.28;;;;;;;4.33;100.00;102585.22;5015048;28;20666;-40
2024/01/27 02:41:56;;;;;;;30.05;5.40;;;;;;;4.38;100.00;102582.63;5015579;28;20188;-41
2024/01/27 02:44:22;;;;;;;24.00;3.83;;;;;;;4.36;100.00;102587.91;5015297;28;20246;-41
2024/01/27 02:46:48;;;;;;;29.38;5.00;;;;;;;4.33;100.00;102586.09;5015194;28;20663;-40
2024/01/27 02:49:13;;;;;;;32.60;4.68;;;;;;;4.40;100.00;102592.41;5014917;28;20275;-40
2024/01/27 02:51:39;;;;;;;26.40;4.70;;;;;;;4.27;100.00;102585.09;4997558;28;20522;-40
2024/01/27 02:54:04;;;;;;;21.92;3.67;;;;;;;4.31;100.00;102600.22;5015192;28;20161;-41
2024/01/27 02:56:30;;;;;;;30.00;5.40;;;;;;;4.31;100.00;102592.25;5014613;28;20283;-41
2024/01/27 02:58:55;;;;;;;29.98;4.75;;;;;;;4.28;100.00;102590.41;5015089;28;20192;-42
2024/01/27 03:01:21;;;;;;;21.23;3.42;;;;;;;4.29;100.00;102599.28;5015240;28;20173;-41
2024/01/27 03:03:46;;;;;;;29.30;5.03;;;;;;;4.30;100.00;102601.06;5014704;28;20212;-40
2024/01/27 03:06:11;;;;;;;37.55;4.57;;;;;;;4.28;100.00;102594.84;5014578;28;20243;-40
2024/01/27 03:08:37;;;;;;;35.15;4.60;;;;;;;4.29;100.00;102586.03;5014730;28;20548;-41
2024/01/27 03:11:03;;;;;;;28.30;4.63;;;;;;;4.31;100.00;102608.19;5014626;28;20222;-42
2024/01/27 03:13:28;;;;;;;28.27;4.57;;;;;;;4.35;100.00;102604.69;4996715;28;20334;-41
2024/01/27 03:15:54;;;;;;;45.70;4.45;;;;;;;4.36;100.00;102601.16;5014401;28;20233;-43
2024/01/27 03:18:19;;;;;;;35.67;5.05;;;;;;;4.39;100.00;102611.81;5014494;28;20197;-41
2024/01/27 03:20:45;;;;;;;31.55;4.93;;;;;;;4.41;100.00;102617.16;5014571;28;20187;-42
2024/01/27 03:23:10;;;;;;;36.58;5.43;;;;;;;4.39;100.00;102625.09;5014450;28;20666;-43
2024/01/27 03:25:36;;;;;;;40.85;4.72;;;;;;;4.42;100.00;102627.81;5014276;28;20258;-41
2024/01/27 03:28:01;;;;;;;37.08;4.03;;;;;;;4.45;100.00;102632.28;5014282;28;20252;-41
2024/01/27 03:30:27;;;;;;;32.25;4.55;;;;;;;4.49;100.00;102636.75;5014437;28;20196;-41
2024/01/27 03:32:52;;;;;;;31.38;5.03;;;;;;;4.44;100.00;102627.81;5013184;28;20168;-41
2024/01/27 03:35:18;;;;;;;33.25;4.55;;;;;;;4.47;100.00;102639.38;5014078;28;20186;-42
2024/01/27 03:37:45;;;;;;;35.35;4.25;;;;;;;4.52;100.00;102639.47;5014242;28;20204;-40
2024/01/27 03:40:11;;;;;;;32.97;4.18;;;;;;;4.52;100.00;102643.00;5014124;28;20165;-40
2024/01/27 03:42:36;;;;;;;29.40;4.85;;;;;;;4.55;100.00;102639.53;5014064;28;20184;-39
2024/01/27 03:45:03;;;;;;;35.63;4.63;;;;;;;4.58;100.00;102646.63;5014066;28;20524;-42
2024/01/27 03:47:28;;;;;;;32.67;3.85;;;;;;;4.56;100.00;102659.88;5013985;28;20184;-41
2024/01/27 03:49:54;;;;;;;32.72;4.65;;;;;;;4.60;100.00;102659.06;5013826;28;20219;-42
2024/01/27 03:52:19;;;;;;;33.88;4.38;;;;;;;4.54;100.00;102665.16;5014094;28;20189;-43
2024/01/27 03:54:44;;;;;;;29.73;5.10;;;;;;;4.54;100.00;102670.47;5013806;28;20181;-40
2024/01/27 03:57:10;;;;;;;26.20;3.85;;;;;;;4.61;100.00;102666.13;5013764;28;20279;-40
2024/01/27 03:59:36;;;;;;;29.15;4.82;;;;;;;4.62;100.00;102677.69;5013619;28;20196;-41
2024/01/27 04:02:01;;;;;;;40.55;5.35;;;;;;;4.63;100.00;102680.34;5013936;28;20615;-42
2024/01/27 04:04:27;;;;;;;42.28;4.22;;;;;;;4.63;100.00;102684.75;5013828;28;20570;-41
2024/01/27 04:06:52;;;;;;;25.73;4.95;;;;;;;4.61;100.00;102678.53;5013457;28;20199;-41
2024/01/27 04:09:18;;;;;;;33.38;4.82;;;;;;;4.66;100.00;102691.03;5013321;28;20567;-41
2024/01/27 04:11:43;;;;;;;36.78;4.85;;;;;;;4.63;100.00;102698.03;5013423;28;20181;-41
2024/01/27 04:14:09;;;;;;;26.08;5.65;;;;;;;4.64;100.00;102695.41;5013418;28;20187;-39
2024/01/27 04:16:35;;;;;;;41.60;5.57;;;;;;;4.65;100.00;102691.00;5013071;28;20706;-41
2024/01/27 04:19:00;;;;;;;24.85;4.53;;;;;;;4.64;100.00;102697.19;5013199;28;20569;-41
2024/01/27 04:21:25;;;;;;;36.72;4.57;;;;;;;4.59;100.00;102682.91;5013305;28;20603;-43
2024/01/27 04:23:51;;;;;;;37.55;4.60;;;;;;;4.55;100.00;102687.31;5013306;28;20157;-41
2024/01/27 04:26:16;;;;;;;39.55;5.70;;;;;;;4.56;100.00;102691.72;5013473;28;20567;-40
2024/01/27 04:28:42;;;;;;;27.77;4.93;;;;;;;4.53;100.00;102684.63;5013065;28;20239;-39
2024/01/27 04:31:07;;;;;;;32.65;4.45;;;;;;;4.52;100.00;102682.81;5010865;28;20251;-41
2024/01/27 04:33:33;;;;;;;27.77;3.58;;;;;;;4.55;100.00;102692.63;5010991;28;20187;-40
2024/01/27 04:35:58;;;;;;;27.63;4.00;;;;;;;4.59;100.00;102683.84;5003576;28;20208;-43
2024/01/27 04:38:24;;;;;;;24.10;3.63;;;;;;;4.50;100.00;102694.28;5007546;28;20295;-41
2024/01/27 04:40:51;;;;;;;28.98;4.47;;;;;;;4.42;100.00;102694.16;5006890;28;20203;-41
2024/01/27 04:43:17;;;;;;;36.95;4.80;;;;;;;4.37;100.00;102697.59;5008981;28;20203;-43
2024/01/27 04:45:42;;;;;;;24.27;3.47;;;;;;;4.51;100.00;102696.97;4992579;28;20200;-42
2024/01/27 04:48:08;;;;;;;23.20;3.83;;;;;;;4.38;100.00;102702.94;5010856;28;20247;-43
2024/01/27 04:50:34;;;;;;;28.48;3.97;;;;;;;4.32;100.00;102711.66;5004546;28;20193;-45
2024/01/27 04:53:00;;;;;;;30.00;3.70;;;;;;;4.35;100.00;102702.84;4990735;28;20477;-41
2024/01/27 04:55:26;;;;;;;35.30;4.60;;;;;;;4.26;100.00;102708.94;5007692;28;20274;-43
2024/01/27 04:57:52;;;;;;;35.13;4.35;;;;;;;4.17;100.00;102695.47;5007645;28;20213;-40
2024/01/27 05:00:17;;;;;;;22.92;3.65;;;;;;;4.20;100.00;102710.53;5004394;28;20203;-44
2024/01/27 05:02:43;;;;;;;25.83;4.43;;;;;;;4.21;100.00;102705.28;5010406;28;20662;-42
2024/01/27 05:05:09;;;;;;;27.02;4.47;;;;;;;4.02;100.00;102701.38;5004281;28;20220;-41
2024/01/27 05:07:34;;;;;;;30.15;4.72;;;;;;;4.02;100.00;102700.50;5007130;28;20630;-40
2024/01/27 05:10:00;;;;;;;23.52;3.55;;;;;;;3.97;100.00;102708.38;5006165;28;20193;-42
2024/01/27 05:12:26;;;;;;;23.85;4.20;;;;;;;3.99;100.00;102701.34;5004036;28;20189;-42
2024/01/27 05:14:51;;;;;;;33.08;4.75;;;;;;;3.96;100.00;102729.53;5007319;28;20195;-39
2024/01/27 05:17:17;;;;;;;33.97;4.28;;;;;;;3.95;100.00;102722.47;5010611;28;20205;-44
2024/01/27 05:19:42;;;;;;;28.85;4.57;;;;;;;4.05;100.00;102717.38;5004618;28;20216;-43
2024/01/27 05:22:08;;;;;;;28.27;4.03;;;;;;;4.09;100.00;102718.34;5001434;28;20207;-42
2024/01/27 05:24:33;;;;;;;31.60;4.90;;;;;;;4.05;100.00;102711.19;5008608;28;20607;-41
2024/01/27 05:26:59;;;;;;;29.88;5.22;;;;;;;4.02;100.00;102709.34;5004274;28;20544;-40
2024/01/27 05:29:27;;;;;;;32.25;4.00;;;;;;;4.03;100.00;102720.84;5005375;28;20200;-43
2024/01/27 05:31:53;;;;;;;37.70;4.47;;;;;;;3.99;100.00;102729.63;5006267;28;20204;-41
2024/01/27 05:34:18;;;;;;;31.33;4.22;;;;;;;3.95;100.00;102726.00;5008173;28;20192;-41
2024/01/27 05:36:44;;;;;;;32.13;5.07;;;;;;;3.96;100.00;102737.50;5008219;28;20710;-43
2024/01/27 05:39:09;;;;;;;33.22;4.63;;;;;;;4.00;100.00;102736.69;5002203;28;20239;-41
2024/01/27 05:41:35;;;;;;;28.00;4.47;;;;;;;4.00;100.00;102736.69;5005053;28;20197;-42
2024/01/27 05:44:00;;;;;;;21.35;4.47;;;;;;;4.01;100.00;102742.03;5001030;28;20192;-45
2024/01/27 05:46:26;;;;;;;31.38;3.90;;;;;;;3.95;100.00;102741.91;5006257;28;20299;-43
2024/01/27 05:48:53;;;;;;;20.52;3.83;;;;;;;3.90;100.00;102760.38;5001802;28;20267;-41
2024/01/27 05:51:20;;;;;;;34.53;4.55;;;;;;;3.85;100.00;102772.66;5008381;28;20344;-41
2024/01/27 05:53:46;;;;;;;38.83;4.88;;;;;;;3.87;100.00;102767.38;5005041;28;20564;-41
2024/01/27 05:56:12;;;;;;;34.00;4.20;;;;;;;3.85;100.00;102782.38;5006695;28;20205;-42
2024/01/27 05:58:37;;;;;;;39.05;4.50;;;;;;;3.81;100.00;102780.53;5003829;28;20574;-43
2024/01/27 06:01:03;;;;;;;31.38;5.40;;;;;;;3.87;100.00;102770.03;5005184;28;20695;-46
2024/01/27 06:03:29;;;;;;;29.73;4.70;;;;;;;3.89;100.00;102777.19;5006596;28;20266;-42
2024/01/27 06:05:54;;;;;;;38.97;4.43;;;;;;;3.87;100.00;102780.63;5004802;28;20236;-42
2024/01/27 06:08:20;;;;;;;25.65;4.38;;;;;;;3.96;100.00;102788.81;5009882;28;20653;-43
2024/01/27 06:10:46;;;;;;;28.65;4.50;;;;;;;3.99;100.00;102790.63;5003302;28;20185;-42
2024/01/27 06:13:12;;;;;;;39.75;5.15;;;;;;;3.98;100.00;102792.38;5004750;28;20413;-41
2024/01/27 06:15:37;;;;;;;28.42;4.38;;;;;;;3.95;100.00;102805.56;4987932;28;20200;-39
2024/01/27 06:18:03;;;;;;;35.72;4.88;;;;;;;3.95;100.00;102799.38;5004973;28;20578;-42
2024/01/27 06:20:29;;;;;;;30.85;3.92;;;;;;;3.96;100.00;102811.75;5008620;28;20701;-41
2024/01/27 06:22:54;;;;;;;24.42;3.17;;;;;;;3.99;100.00;102807.41;5009905;28;20180;-43
2024/01/27 06:25:23;;;;;;;24.77;4.05;;;;;;;3.99;100.00;102799.47;5005962;28;20279;-41
2024/01/27 06:27:48;;;;;;;32.83;3.95;;;;;;;4.04;100.00;102818.13;5003598;28;20181;-42
2024/01/27 06:30:15;;;;;;;44.47;5.28;;;;;;;4.00;100.00;102817.19;5002404;28;20184;-43
2024/01/27 06:32:41;;;;;;;29.67;4.07;;;;;;;3.98;100.00;102821.56;5007803;28;20567;-43
2024/01/27 06:35:07;;;;;;;23.88;3.65;;;;;;;4.01;100.00;102816.31;5011352;28;20192;-40
2024/01/27 06:37:33;;;;;;;38.65;4.93;;;;;;;4.06;100.00;102824.34;5005094;28;20290;-42
2024/01/27 06:39:58;;;;;;;30.90;5.22;;;;;;;4.06;100.00;102830.53;5006182;28;20185;-41
2024/01/27 06:42:24;;;;;;;34.70;5.30;;;;;;;4.09;100.00;102825.31;5002757;28;20688;-41
2024/01/27 06:44:49;;;;;;;25.95;4.53;;;;;;;4.11;100.00;102825.31;5003565;28;20191;-42
2024/01/27 06:47:15;;;;;;;31.55;3.97;;;;;;;4.13;100.00;102826.25;4991512;28;20300;-40
2024/01/27 06:49:40;;;;;;;32.60;4.95;;;;;;;4.07;100.00;102832.34;4991657;28;20188;-41
2024/01/27 06:52:06;;;;;;;35.92;3.75;;;;;;;4.11;100.00;102844.81;4974198;28;20185;-38
2024/01/27 06:54:31;;;;;;;36.30;4.38;;;;;;;4.15;100.00;102842.22;4991682;28;20182;-41
2024/01/27 06:56:59;;;;;;;32.20;4.70;;;;;;;4.14;100.00;102843.97;4991498;28;20212;-41
2024/01/27 06:59:25;;;;;;;44.90;4.90;;;;;;;4.12;100.00;102846.59;4991555;28;20252;-43
2024/01/27 07:01:51;;;;;;;33.40;4.85;;;;;;;4.11;100.00;102834.22;4991794;28;20162;-38
2024/01/27 07:04:17;;;;;;;35.83;4.97;;;;;;;4.10;100.00;102836.81;4991700;28;20238;-39
2024/01/27 07:06:43;;;;;;;29.48;5.20;;;;;;;4.18;100.00;102847.59;4989937;28;20208;-41
2024/01/27 07:09:11;;;;;;;29.70;3.85;;;;;;;4.15;100.00;102844.88;4994625;28;20201;-40
2024/01/27 07:11:37;;;;;;;23.27;3.83;;;;;;;4.22;100.00;102858.31;4995134;28;20185;-41
2024/01/27 07:14:03;;;;;;;25.42;4.45;;;;;;;4.17;100.00;102853.75;4994821;28;20184;-40
2024/01/27 07:16:29;;;;;;;29.98;4.90;;;;;;;4.16;100.00;102851.97;4994731;28;20687;-42
2024/01/27 07:18:54;;;;;;;36.20;5.35;;;;;;;4.08;100.00;102846.50;4994707;28;20192;-43
2024/01/27 07:21:20;;;;;;;30.02;4.47;;;;;;;3.97;100.00;102854.22;4994604;28;20165;-41
2024/01/27 07:23:45;;;;;;;26.98;3.65;;;;;;;4.07;100.00;102858.88;4994611;28;20208;-40
2024/01/27 07:26:11;;;;;;;40.85;5.32;;;;;;;3.93;100.00;102865.63;4994500;28;20201;-42
2024/01/27 07:28:37;;;;;;;27.67;4.38;;;;;;;3.86;100.00;102863.72;4994598;28;20228;-41
2024/01/27 07:31:03;;;;;;;23.52;4.47;;;;;;;3.83;100.00;102874.25;4992846;28;20234;-40
2024/01/27 07:33:28;;;;;;;40.55;5.18;;;;;;;3.80;100.00;102882.13;4994756;28;20586;-42
2024/01/27 07:35:54;;;;;;;31.45;3.75;;;;;;;3.80;100.00;102875.06;4994342;28;20228;-43
2024/01/27 07:38:20;;;;;;;24.58;4.30;;;;;;;3.80;100.00;102884.78;4994443;28;20193;-43
2024/01/27 07:40:45;;;;;;;28.67;4.00;;;;;;;3.68;100.00;102888.06;4994605;28;20162;-41
2024/01/27 07:43:11;;;;;;;28.50;3.88;;;;;;;3.65;100.00;102890.59;4994211;28;20228;-43
2024/01/27 07:45:36;;;;;;;20.23;3.80;;;;;;;3.66;100.00;102900.38;4994085;28;20664;-42
2024/01/27 07:48:02;;;;;;;29.70;4.65;;;;;;;3.65;100.00;102898.56;4992983;28;20178;-42
2024/01/27 07:50:27;;;;;;;19.33;3.38;;;;;;;3.75;100.00;102897.03;4994395;28;20170;-43
2024/01/27 07:52:53;;;;;;;25.48;3.75;;;;;;;3.78;100.00;102894.44;4994178;28;20650;-40
2024/01/27 07:55:18;;;;;;;36.00;4.35;;;;;;;3.75;100.00;102897.03;4994243;28;20181;-40
2024/01/27 07:57:44;;;;;;;27.92;4.55;;;;;;;3.72;100.00;102896.09;4993939;28;20239;-42
2024/01/27 08:00:10;;;;;;;31.58;4.55;;;;;;;3.69;100.00;102893.38;4994222;28;20182;-41
2024/01/27 08:02:35;;;;;;;26.70;4.53;;;;;;;3.72;100.00;102896.09;4993795;28;20162;-40
2024/01/27 08:05:03;;;;;;;35.70;4.43;;;;;;;3.77;100.00;102901.50;4976561;28;20193;-39
2024/01/27 08:07:29;;;;;;;23.83;3.58;;;;;;;3.80;100.00;102912.19;4992756;28;20301;-43
2024/01/27 08:09:56;;;;;;;30.15;4.35;;;;;;;3.83;100.00;102922.00;4993796;28;20272;-40
2024/01/27 08:12:22;;;;;;;24.75;4.05;;;;;;;3.80;100.00;102919.25;4994092;28;20170;-40
2024/01/27 08:14:47;;;;;;;30.73;4.00;;;;;;;3.84;100.00;102921.09;4993937;28;20177;-41
2024/01/27 08:17:13;;;;;;;33.42;4.60;;;;;;;3.81;100.00;102923.69;4992732;28;20711;-41
2024/01/27 08:19:39;;;;;;;39.00;4.88;;;;;;;3.77;100.00;102925.38;4991695;28;20443;-39
2024/01/27 08:22:04;;;;;;;22.40;3.88;;;;;;;3.82;100.00;102917.53;4994258;28;20270;-43
2024/01/27 08:24:30;;;;;;;36.70;4.68;;;;;;;3.79;100.00;102930.72;4993884;28;20523;-41
2024/01/27 08:26:55;;;;;;;25.30;4.43;;;;;;;3.80;100.00;102927.19;4993988;28;20232;-43
2024/01/27 08:29:21;;;;;;;30.60;4.50;;;;;;;3.79;100.00;102942.22;4994038;28;20154;-41
2024/01/27 08:31:46;;;;;;;25.27;4.22;;;;;;;3.78;100.00;102928.91;4993627;28;20177;-40
2024/01/27 08:34:14;;;;;;;28.70;4.28;;;;;;;3.74;100.00;102943.88;4993503;28;20550;-45
2024/01/27 08:36:40;;;;;;;23.58;3.90;;;;;;;3.76;100.00;102935.94;4993453;28;20293;-40
2024/01/27 08:39:07;;;;;;;26.67;4.40;;;;;;;3.79;100.00;102942.22;4993690;28;20189;-40
2024/01/27 08:41:33;;;;;;;37.70;4.05;;;;;;;3.86;100.00;102945.91;4993331;28;20201;-40
2024/01/27 08:43:59;;;;;;;23.02;3.58;;;;;;;3.87;100.00;102948.59;4993761;28;20188;-40
2024/01/27 08:46:24;;;;;;;27.38;3.67;;;;;;;3.93;100.00;102950.47;4993293;28;20562;-42
2024/01/27 08:48:49;;;;;;;25.20;3.88;;;;;;;4.00;100.00;102939.19;4993190;28;20161;-40
2024/01/27 08:51:16;;;;;;;27.38;4.38;;;;;;;3.98;100.00;102940.91;4993316;28;20173;-43
2024/01/27 08:53:48;;;;;;;33.45;4.43;;;;;;;4.03;100.00;102933.94;4993489;28;20433;-41
2024/01/27 08:56:20;;;;;;;28.70;4.38;;;;;;;3.94;100.00;102933.72;4993156;28;20260;-42
2024/01/27 08:58:47;;;;;;;33.80;4.05;;;;;;;3.95;100.00;102942.56;4993005;28;20197;-41
2024/01/27 09:01:15;;;;;;;35.40;4.32;;;;;;;3.97;100.00;102949.69;4992860;28;20173;-39
2024/01/27 09:03:40;;;;;;;25.30;4.00;;;;;;;4.02;100.00;102949.81;4975713;28;20196;-40
2024/01/27 09:06:09;;;;;;;27.50;4.45;;;;;;;3.99;100.00;102950.63;4992005;28;20201;-40
2024/01/27 09:08:35;;;;;;;31.88;4.18;;;;;;;4.00;100.00;102957.75;4993203;28;20174;-40
2024/01/27 09:11:04;;;;;;;26.30;4.00;;;;;;;4.07;100.00;102962.31;4993200;28;20616;-42
2024/01/27 09:13:29;;;;;;;37.72;4.88;;;;;;;4.12;100.00;102973.03;4992888;28;20753;-38
2024/01/27 09:15:57;;;;;;;38.75;3.90;;;;;;;4.17;100.00;102970.50;4990685;28;20204;-40
2024/01/27 09:18:23;;;;;;;33.67;4.82;;;;;;;4.13;100.00;102977.47;4989638;28;20206;-43
2024/01/27 09:20:49;;;;;;;24.92;3.85;;;;;;;4.21;100.00;102977.66;4989632;28;20276;-42
2024/01/27 09:23:14;;;;;;;24.35;4.25;;;;;;;4.33;100.00;102984.16;4989753;28;20166;-42
2024/01/27 09:25:40;;;;;;;27.40;3.60;;;;;;;4.42;100.00;102970.19;4989187;28;20630;-39
2024/01/27 09:28:05;;;;;;;29.17;4.13;;;;;;;4.43;100.00;102977.25;4972465;28;20651;-40
2024/01/27 09:30:31;;;;;;;28.05;4.43;;;;;;;4.62;100.00;102975.03;4989115;28;20608;-41
2024/01/27 09:32:56;;;;;;;37.75;4.03;;;;;;;4.68;100.00;102973.38;4992373;28;20157;-39
2024/01/27 09:35:22;;;;;;;27.05;3.78;;;;;;;4.58;100.00;102971.41;4992435;28;20327;-41
2024/01/27 09:37:47;;;;;;;35.05;5.00;;;;;;;4.65;100.00;102983.03;4992510;28;20213;-42
2024/01/27 09:40:13;;;;;;;33.22;4.25;;;;;;;4.72;100.00;102985.88;4992570;28;20272;-42
2024/01/27 09:42:41;;;;;;;34.17;5.25;;;;;;;4.78;100.00;102986.84;4992565;28;20197;-45
2024/01/27 09:45:09;;;;;;;26.10;3.75;;;;;;;4.84;100.00;102990.53;4992852;28;20200;-42
2024/01/27 09:47:36;;;;;;;29.67;4.25;;;;;;;4.88;100.00;102980.88;5017943;23;20233;-45
2024/01/27 09:50:02;;;;;;;24.45;3.85;;;;;;;4.89;100.00;102995.94;4999097;28;20193;-43
2024/01/27 09:52:27;;;;;;;29.38;4.40;;;;;;;4.85;100.00;102997.59;5000604;28;20173;-43
2024/01/27 09:54:53;;;;;;;27.42;4.75;;;;;;;4.87;100.00;103005.63;5003098;28;20193;-43
2024/01/27 09:57:20;;;;;;;28.77;4.35;;;;;;;4.91;100.00;103008.38;4998382;28;20722;-45
2024/01/27 09:59:49;;;;;;;32.78;4.88;;;;;;;4.88;100.00;103000.34;5002061;28;20189;-44
2024/01/27 10:02:15;;;;;;;33.17;4.93;;;;;;;4.95;100.00;103002.25;4999041;28;20259;-44
2024/01/27 10:04:42;;;;;;;29.85;4.15;;;;;;;5.03;100.00;103014.78;5003703;28;20200;-46
2024/01/27 10:07:07;;;;;;;37.42;4.18;;;;;;;5.14;100.00;103006.19;4996252;28;20197;-43
2024/01/27 10:09:33;;;;;;;27.25;4.22;;;;;;;5.22;100.00;103010.72;5004417;28;20600;-43
2024/01/27 10:12:01;;;;;;;27.65;4.53;;;;;;;5.27;100.00;103012.63;5000206;28;20185;-44
2024/01/27 10:14:38;;;;;;;27.35;4.53;;;;;;;5.29;100.00;103010.91;5000457;28;20259;-44
2024/01/27 10:17:03;;;;;;;24.58;3.78;;;;;;;5.31;100.00;103010.91;4998261;28;20205;-43
2024/01/27 10:19:29;;;;;;;25.92;3.83;;;;;;;5.39;100.00;103019.03;4997569;28;20275;-43
2024/01/27 10:22:02;;;;;;;34.72;4.70;;;;;;;5.27;100.00;103006.38;4996531;28;20216;-44
2024/01/27 10:24:32;;;;;;;22.48;3.90;;;;;;;5.16;100.00;103011.53;5000349;28;20619;-44
2024/01/27 10:27:03;;;;;;;32.78;4.93;;;;;;;5.31;100.00;103009.16;5000298;28;20322;-44
2024/01/27 10:29:29;;;;;;;35.35;4.65;;;;;;;5.34;100.00;103008.31;4997260;28;20244;-45
2024/01/27 10:31:55;;;;;;;30.13;4.25;;;;;;;5.34;100.00;103003.00;4999737;28;20728;-43
2024/01/27 10:34:20;;;;;;;27.08;4.55;;;;;;;5.40;100.00;103002.19;4998908;28;20189;-46
2024/01/27 10:36:46;;;;;;;36.63;5.32;;;;;;;5.40;100.00;102995.16;5001599;28;20294;-44
2024/01/27 10:39:22;;;;;;;23.73;3.88;;;;;;;5.59;100.00;103001.66;5001017;28;20216;-43
2024/01/27 10:41:48;;;;;;;25.17;4.55;;;;;;;5.63;100.00;102992.88;5001671;28;20198;-45
2024/01/27 10:44:16;;;;;;;28.05;4.55;;;;;;;5.55;100.00;103002.47;5003860;28;20338;-45
2024/01/27 10:46:49;;;;;;;31.35;3.70;;;;;;;5.56;100.00;102996.31;5010048;28;20216;-43
2024/01/27 10:49:17;;;;;;;33.00;5.35;;;;;;;5.56;100.00;102996.31;5000940;28;20701;-44
2024/01/27 10:51:51;;;;;;;29.20;4.28;;;;;;;5.59;100.00;103001.66;5002560;28;20657;-45
2024/01/27 10:54:27;;;;;;;30.95;4.45;;;;;;;5.58;100.00;102997.22;5003218;28;20185;-44
2024/01/27 10:56:55;;;;;;;21.75;5.22;;;;;;;5.63;100.00;102989.31;5005097;28;20291;-44
2024/01/27 10:59:21;;;;;;;36.42;4.15;;;;;;;5.58;100.00;103000.78;5002889;28;20215;-44
2024/01/27 11:01:52;;;;;;;24.70;4.22;;;;;;;5.61;100.00;102986.63;5003144;28;20221;-43
2024/01/27 11:04:20;;;;;;;22.75;3.67;;;;;;;5.63;100.00;103008.84;4987362;28;20192;-45
2024/01/27 11:06:47;;;;;;;36.70;4.43;;;;;;;5.67;100.00;103000.03;5004267;28;20264;-45
2024/01/27 11:09:14;;;;;;;28.23;4.68;;;;;;;5.62;100.00;102996.41;5003807;28;20260;-43
2024/01/27 11:11:42;;;;;;;39.30;5.05;;;;;;;5.64;100.00;102989.38;5004812;28;20223;-45